createdAt,value
2019-02-28T00:02:31.434Z,22.90
2019-02-28T00:07:37.856Z,22.90
2019-02-28T00:12:45.233Z,22.90
2019-02-28T00:17:52.825Z,22.90
2019-02-28T00:22:58.844Z,22.90
2019-02-28T00:28:12.432Z,22.90
2019-02-28T00:33:18.615Z,22.80
2019-02-28T00:38:29.481Z,22.80
2019-02-28T00:43:33.264Z,22.80
2019-02-28T00:48:39.104Z,22.80
2019-02-28T00:53:44.734Z,22.80
2019-02-28T00:58:51.569Z,22.80
2019-02-28T01:03:58.200Z,22.80
2019-02-28T01:09:05.684Z,22.80
2019-02-28T01:14:11.686Z,22.70
2019-02-28T01:19:17.686Z,22.70
2019-02-28T01:24:23.957Z,22.70
2019-02-28T01:29:32.954Z,22.70
2019-02-28T01:34:38.857Z,22.70
2019-02-28T01:39:45.614Z,22.70
2019-02-28T01:44:51.343Z,22.70
2019-02-28T01:49:58.761Z,22.60
2019-02-28T01:55:05.654Z,22.60
2019-02-28T02:00:13.764Z,22.60
2019-02-28T02:05:19.855Z,22.60
2019-02-28T02:10:25.724Z,22.60
2019-02-28T02:15:32.042Z,22.60
2019-02-28T02:20:38.854Z,22.60
2019-02-28T02:25:45.656Z,22.60
2019-02-28T02:30:52.235Z,22.60
2019-02-28T02:35:58.647Z,22.60
2019-02-28T02:41:05.071Z,22.60
2019-02-28T02:46:19.707Z,22.60
2019-02-28T02:51:18.932Z,22.60
2019-02-28T02:56:24.707Z,22.60
2019-02-28T03:01:31.274Z,22.60
2019-02-28T03:06:38.415Z,22.60
2019-02-28T03:11:44.714Z,22.60
2019-02-28T03:16:50.604Z,22.50
2019-02-28T03:21:57.275Z,22.50
2019-02-28T03:27:03.132Z,22.50
2019-02-28T03:32:09.749Z,22.50
2019-02-28T03:37:17.207Z,22.50
2019-02-28T03:42:28.557Z,22.50
2019-02-28T03:47:30.987Z,22.50
2019-02-28T03:52:41.785Z,22.40
2019-02-28T03:57:44.821Z,22.40
2019-02-28T04:02:56.695Z,22.40
2019-02-28T04:07:59.146Z,22.40
2019-02-28T04:13:05.855Z,22.40
2019-02-28T04:18:12.235Z,22.40
2019-02-28T04:23:18.383Z,22.40
2019-02-28T04:28:24.253Z,22.40
2019-02-28T04:33:37.543Z,22.30
2019-02-28T04:38:38.953Z,22.30
2019-02-28T04:43:45.054Z,22.30
2019-02-28T04:48:51.374Z,22.30
2019-02-28T04:53:57.693Z,22.30
2019-02-28T04:59:03.913Z,22.30
2019-02-28T05:04:10.025Z,22.30
2019-02-28T05:09:16.546Z,22.30
2019-02-28T05:14:23.819Z,22.20
2019-02-28T05:19:32.373Z,22.20
2019-02-28T05:24:42.568Z,22.20
2019-02-28T05:29:47.713Z,22.20
2019-02-28T05:34:53.993Z,22.20
2019-02-28T05:40:05.629Z,22.20
2019-02-28T05:45:08.174Z,22.20
2019-02-28T05:50:16.715Z,22.20
2019-02-28T05:55:25.613Z,22.20
2019-02-28T06:00:29.763Z,22.20
2019-02-28T06:05:35.594Z,22.20
2019-02-28T06:10:42.283Z,22.10
2019-02-28T06:15:48.573Z,22.10
2019-02-28T06:20:54.623Z,22.10
2019-02-28T06:26:00.782Z,22.10
2019-02-28T06:31:06.754Z,22.10
2019-02-28T06:36:12.816Z,22.10
2019-02-28T06:41:19.134Z,22.10
2019-02-28T06:46:24.957Z,22.10
2019-02-28T06:51:30.934Z,22.00
2019-02-28T06:56:37.663Z,22.00
2019-02-28T07:01:43.544Z,22.00
2019-02-28T07:06:49.589Z,22.00
2019-02-28T07:11:56.006Z,22.00
2019-02-28T07:17:02.273Z,22.00
2019-02-28T07:22:08.594Z,22.00
2019-02-28T07:27:14.693Z,22.00
2019-02-28T07:32:21.167Z,22.00
2019-02-28T07:37:27.114Z,22.00
2019-02-28T07:42:33.647Z,22.00
2019-02-28T07:47:41.344Z,22.00
2019-02-28T07:52:47.389Z,22.00
2019-02-28T07:57:56.420Z,22.00
2019-02-28T08:03:01.754Z,22.00
2019-02-28T08:08:08.003Z,22.00
2019-02-28T08:13:13.874Z,22.10
2019-02-28T08:18:21.383Z,22.10
2019-02-28T08:23:29.862Z,22.10
2019-02-28T08:28:36.823Z,22.10
2019-02-28T08:33:43.335Z,22.10
2019-02-28T08:38:49.123Z,22.10
2019-02-28T08:43:55.714Z,22.20
2019-02-28T08:49:06.112Z,22.20
2019-02-28T08:54:11.074Z,22.20
2019-02-28T08:59:20.419Z,22.20
2019-02-28T09:04:26.504Z,22.20
2019-02-28T09:09:34.467Z,22.20
2019-02-28T09:14:41.474Z,22.20
2019-02-28T09:19:47.353Z,22.30
2019-02-28T09:24:53.524Z,22.20
2019-02-28T09:30:00.271Z,22.30
2019-02-28T09:35:12.249Z,22.30
2019-02-28T09:40:15.544Z,22.30
2019-02-28T09:45:21.734Z,22.30
2019-02-28T09:50:27.976Z,22.40
2019-02-28T09:55:35.365Z,22.30
2019-02-28T10:00:43.347Z,22.40
2019-02-28T10:05:49.395Z,22.40
2019-02-28T10:10:55.898Z,22.40
2019-02-28T10:16:03.164Z,22.40
2019-02-28T10:21:08.874Z,22.40
2019-02-28T10:26:17.237Z,22.40
2019-02-28T10:31:35.185Z,22.40
2019-02-28T10:36:30.585Z,22.40
2019-02-28T10:41:36.352Z,22.50
2019-02-28T10:46:42.945Z,22.50
2019-02-28T10:51:50.346Z,22.40
2019-02-28T10:56:56.801Z,22.40
2019-02-28T11:02:02.843Z,22.40
2019-02-28T11:07:09.607Z,22.40
2019-02-28T11:12:19.636Z,22.50
2019-02-28T11:17:23.475Z,22.40
2019-02-28T11:22:30.303Z,22.40
2019-02-28T11:27:36.304Z,22.40
2019-02-28T11:32:43.034Z,22.50
2019-02-28T11:37:50.413Z,22.50
2019-02-28T11:42:59.328Z,22.50
2019-02-28T11:48:05.244Z,22.50
2019-02-28T11:53:11.294Z,22.50
2019-02-28T11:58:18.140Z,22.50
2019-02-28T12:03:24.674Z,22.60
2019-02-28T12:08:31.454Z,22.60
2019-02-28T12:13:37.654Z,22.60
2019-02-28T12:18:43.863Z,22.60
2019-02-28T12:23:49.954Z,22.60
2019-02-28T12:28:55.535Z,22.60
2019-02-28T12:34:01.554Z,22.60
2019-02-28T12:39:09.117Z,22.60
2019-02-28T12:44:15.414Z,22.70
2019-02-28T12:49:23.021Z,22.70
2019-02-28T12:54:30.292Z,22.70
2019-02-28T12:59:41.748Z,22.70
2019-02-28T13:04:46.546Z,22.70
2019-02-28T13:09:53.637Z,22.70
2019-02-28T13:15:00.555Z,22.70
2019-02-28T13:20:08.495Z,22.80
2019-02-28T13:25:19.275Z,22.80
2019-02-28T13:30:25.104Z,22.80
2019-02-28T13:35:34.314Z,22.90
2019-02-28T13:40:44.879Z,22.90
2019-02-28T13:45:50.739Z,22.90
2019-02-28T13:50:59.326Z,23.00
2019-02-28T13:56:05.119Z,23.00
2019-02-28T14:01:12.033Z,23.10
2019-02-28T14:06:20.019Z,23.10
2019-02-28T14:11:26.498Z,23.10
2019-02-28T14:16:32.414Z,23.20
2019-02-28T14:21:38.963Z,23.20
2019-02-28T14:26:46.534Z,23.30
2019-02-28T14:31:52.232Z,23.40
2019-02-28T14:36:58.280Z,23.50
2019-02-28T14:42:06.731Z,23.50
2019-02-28T14:47:11.507Z,23.60
2019-02-28T14:52:17.934Z,23.60
2019-02-28T14:57:24.135Z,23.70
2019-02-28T15:02:30.855Z,23.70
2019-02-28T15:07:38.706Z,23.70
2019-02-28T15:12:45.115Z,23.80
2019-02-28T15:17:51.424Z,23.80
2019-02-28T15:22:59.599Z,23.90
2019-02-28T15:28:05.525Z,23.90
2019-02-28T15:33:11.935Z,23.90
2019-02-28T15:38:17.835Z,23.90
2019-02-28T15:43:23.875Z,24.00
2019-02-28T15:48:31.323Z,24.00
2019-02-28T15:53:38.336Z,24.00
2019-02-28T15:58:44.736Z,24.00
2019-02-28T16:03:52.501Z,24.00
2019-02-28T16:09:00.906Z,24.00
2019-02-28T16:14:14.300Z,24.00
2019-02-28T16:19:14.956Z,24.00
2019-02-28T16:24:21.056Z,24.00
2019-02-28T16:29:27.277Z,24.00
2019-02-28T16:34:33.005Z,24.00
2019-02-28T16:39:39.176Z,24.00
2019-02-28T16:44:45.160Z,24.00
2019-02-28T16:49:51.425Z,24.00
2019-02-28T16:54:57.476Z,24.00
2019-02-28T17:00:03.939Z,24.10
2019-02-28T17:05:11.122Z,24.10
2019-02-28T17:10:18.671Z,24.10
2019-02-28T17:15:32.506Z,24.10
2019-02-28T17:20:40.716Z,24.00
2019-02-28T17:25:47.466Z,24.00
2019-02-28T17:31:11.442Z,24.00
2019-02-28T17:36:16.487Z,24.00
2019-02-28T17:41:22.074Z,24.00
2019-02-28T17:46:28.255Z,24.00
2019-02-28T17:51:44.259Z,24.00
2019-02-28T17:57:12.449Z,24.00
2019-02-28T18:03:17.190Z,24.00
2019-02-28T18:08:32.195Z,24.00
2019-02-28T18:14:09.426Z,24.00
2019-02-28T18:19:58.996Z,23.90
2019-02-28T18:26:00.946Z,23.90
2019-02-28T18:31:11.656Z,23.90
2019-02-28T18:36:20.677Z,23.80
2019-02-28T18:41:26.535Z,23.80
2019-02-28T18:46:32.835Z,23.80
2019-02-28T18:51:38.716Z,23.80
2019-02-28T18:56:44.586Z,23.80
2019-02-28T19:01:50.326Z,23.80
2019-02-28T19:06:56.736Z,23.80
2019-02-28T19:12:03.105Z,23.80
2019-02-28T19:17:09.729Z,23.70
2019-02-28T19:22:15.506Z,23.70
2019-02-28T19:27:21.716Z,23.70
2019-02-28T19:32:27.716Z,23.70
2019-02-28T19:37:33.906Z,23.70
2019-02-28T19:42:40.476Z,23.70
2019-02-28T19:47:47.568Z,23.80
2019-02-28T19:52:54.226Z,23.70
2019-02-28T19:58:00.756Z,23.70
2019-02-28T20:03:07.378Z,23.70
2019-02-28T20:08:13.456Z,23.70
2019-02-28T20:13:20.516Z,23.80
2019-02-28T20:18:26.425Z,23.80
2019-02-28T20:23:32.704Z,23.80
2019-02-28T20:28:39.107Z,23.80
2019-02-28T20:33:45.846Z,23.80
2019-02-28T20:38:52.743Z,23.80
2019-02-28T20:43:59.226Z,23.80
2019-02-28T20:49:05.386Z,23.70
2019-02-28T20:54:12.606Z,23.70
2019-02-28T20:59:18.442Z,23.70
2019-02-28T21:04:25.745Z,23.80
2019-02-28T21:09:32.283Z,23.70
2019-02-28T21:14:37.939Z,23.70
2019-02-28T21:19:44.416Z,23.70
2019-02-28T21:24:51.985Z,23.80
2019-02-28T21:29:57.676Z,23.80
2019-02-28T21:35:05.422Z,23.70
2019-02-28T21:40:14.728Z,23.70
2019-02-28T21:45:20.335Z,23.80
2019-02-28T21:50:30.425Z,23.70
2019-02-28T21:55:38.918Z,23.70
2019-02-28T22:00:46.970Z,23.70
2019-02-28T22:05:52.145Z,23.70
2019-02-28T22:10:59.775Z,23.70
2019-02-28T22:16:07.863Z,23.70
2019-02-28T22:21:14.420Z,23.70
2019-02-28T22:26:21.626Z,23.70
2019-02-28T22:31:51.052Z,23.70
2019-02-28T22:36:56.895Z,23.70
2019-02-28T22:42:04.658Z,23.70
2019-02-28T22:47:13.321Z,23.70
2019-02-28T22:52:22.300Z,23.70
2019-02-28T22:57:28.097Z,23.70
2019-02-28T23:02:35.135Z,23.70
2019-02-28T23:07:42.675Z,23.70
2019-02-28T23:12:49.396Z,23.70
2019-02-28T23:17:55.676Z,23.70
2019-02-28T23:23:03.875Z,23.70
2019-02-28T23:28:14.645Z,23.70
2019-02-28T23:33:21.217Z,23.70
2019-02-28T23:38:27.640Z,23.70
2019-02-28T23:43:33.775Z,23.60
2019-02-28T23:48:40.116Z,23.70
2019-02-28T23:53:46.006Z,23.70
2019-02-28T23:58:52.675Z,23.60
